Time;durP1;ratioP1;P1;durP2;ratioP2;P2;SDS_P1;SDS_P2;PMS_P1;PMS_P2;Temp;Humidity;BMP_temperature;BMP_pressure;BME280_temperature;BME280_humidity;BME280_pressure;Samples;Min_cycle;Max_cycle;Signal;HPM_P1;HPM_P2
2023/06/30 00:02:26;;;;;;;3.80;3.57;;;;;;;;;;5094493;28;20450;-66
2023/06/30 00:04:53;;;;;;;3.90;3.60;;;;;;;;;;5093369;28;20483;-66
2023/06/30 00:07:21;;;;;;;6.90;3.50;;;;;;;;;;5094210;28;20439;-67
2023/06/30 00:09:50;;;;;;;4.70;4.30;;;;;;;;;;5094209;28;20440;-66
2023/06/30 00:12:17;;;;;;;3.47;3.27;;;;;;;;;;5094137;28;20460;-67
2023/06/30 00:14:45;;;;;;;3.33;3.03;;;;;;;;;;5094374;28;20471;-65
2023/06/30 00:17:13;;;;;;;4.40;4.00;;;;;;;;;;5094303;28;20458;-66
2023/06/30 00:19:40;;;;;;;4.73;3.40;;;;;;;;;;5093652;28;20812;-66
2023/06/30 00:22:08;;;;;;;3.90;3.60;;;;;;;;;;5095048;28;20437;-66
2023/06/30 00:24:36;;;;;;;3.60;3.40;;;;;;;;;;5094093;28;20568;-67
2023/06/30 00:27:03;;;;;;;5.53;4.20;;;;;;;;;;5094558;28;20442;-66
2023/06/30 00:29:30;;;;;;;3.97;3.67;;;;;;;;;;5094042;28;20473;-66
2023/06/30 00:31:57;;;;;;;4.13;3.73;;;;;;;;;;5094217;28;20437;-66
2023/06/30 00:34:26;;;;;;;3.90;3.60;;;;;;;;;;5094126;28;20540;-66
2023/06/30 00:36:53;;;;;;;5.80;3.60;;;;;;;;;;5093739;28;20447;-66
2023/06/30 00:39:20;;;;;;;4.17;3.83;;;;;;;;;;5093960;28;20451;-66
2023/06/30 00:41:47;;;;;;;4.33;3.67;;;;;;;;;;5093943;28;20432;-65
2023/06/30 00:44:14;;;;;;;4.70;4.17;;;;;;;;;;5093421;28;20475;-66
2023/06/30 00:46:42;;;;;;;4.50;4.10;;;;;;;;;;5093583;28;20444;-66
2023/06/30 00:49:09;;;;;;;4.03;3.73;;;;;;;;;;5093706;28;20448;-67
2023/06/30 00:51:37;;;;;;;3.77;3.47;;;;;;;;;;5093860;28;20450;-66
2023/06/30 00:54:05;;;;;;;5.23;3.57;;;;;;;;;;5093599;28;20457;-67
2023/06/30 00:56:32;;;;;;;4.10;3.80;;;;;;;;;;5093362;28;20446;-66
2023/06/30 00:58:59;;;;;;;4.10;3.60;;;;;;;;;;5093269;28;20447;-65
2023/06/30 01:01:33;;;;;;;7.70;4.00;;;;;;;;;;5093333;28;20942;-66
2023/06/30 01:04:03;;;;;;;3.83;3.53;;;;;;;;;;5093575;28;20479;-66
2023/06/30 01:06:37;;;;;;;3.70;3.40;;;;;;;;;;5093639;28;20841;-66
2023/06/30 01:09:07;;;;;;;4.53;4.13;;;;;;;;;;5093519;28;20435;-66
2023/06/30 01:11:34;;;;;;;5.57;3.53;;;;;;;;;;5093294;28;20447;-66
2023/06/30 01:14:02;;;;;;;3.73;3.53;;;;;;;;;;5093603;28;20807;-65
2023/06/30 01:16:30;;;;;;;6.17;4.60;;;;;;;;;;5093041;28;20969;-67
2023/06/30 01:18:59;;;;;;;8.03;3.37;;;;;;;;;;5093383;28;20443;-66
2023/06/30 01:21:28;;;;;;;5.20;3.97;;;;;;;;;;5092919;28;20470;-67
2023/06/30 01:23:57;;;;;;;5.10;3.43;;;;;;;;;;5093511;28;20544;-66
2023/06/30 01:26:26;;;;;;;6.47;4.00;;;;;;;;;;5093550;28;20442;-65
2023/06/30 01:28:53;;;;;;;6.23;3.53;;;;;;;;;;5093820;28;20453;-66
2023/06/30 01:31:20;;;;;;;3.97;3.63;;;;;;;;;;5093062;28;20448;-66
2023/06/30 01:33:48;;;;;;;12.67;3.90;;;;;;;;;;5093079;28;20793;-65
2023/06/30 01:36:15;;;;;;;5.77;4.00;;;;;;;;;;5092972;28;20439;-66
2023/06/30 01:38:44;;;;;;;7.00;3.73;;;;;;;;;;5092959;28;20933;-66
2023/06/30 01:41:11;;;;;;;4.60;4.20;;;;;;;;;;5093450;28;20443;-66
2023/06/30 01:43:40;;;;;;;5.97;4.93;;;;;;;;;;5093572;28;20449;-66
2023/06/30 01:46:08;;;;;;;7.43;4.23;;;;;;;;;;5093725;28;20445;-66
2023/06/30 01:48:35;;;;;;;5.20;4.10;;;;;;;;;;5093219;28;20448;-68
2023/06/30 01:51:03;;;;;;;5.10;4.60;;;;;;;;;;5093308;28;20542;-66
2023/06/30 01:53:30;;;;;;;8.10;4.93;;;;;;;;;;5093236;28;20450;-67
2023/06/30 01:55:58;;;;;;;5.87;4.50;;;;;;;;;;5093096;28;20529;-66
2023/06/30 01:58:25;;;;;;;5.70;5.10;;;;;;;;;;5093118;28;20436;-68
2023/06/30 02:00:54;;;;;;;9.70;5.03;;;;;;;;;;5092643;28;20452;-66
2023/06/30 02:03:21;;;;;;;10.30;5.47;;;;;;;;;;5093083;28;20798;-67
2023/06/30 02:05:48;;;;;;;9.23;5.70;;;;;;;;;;5092828;28;20480;-66
2023/06/30 02:08:16;;;;;;;7.33;5.77;;;;;;;;;;5093052;28;20442;-67
2023/06/30 02:10:43;;;;;;;7.00;5.57;;;;;;;;;;5093096;28;20423;-67
2023/06/30 02:13:10;;;;;;;6.10;5.47;;;;;;;;;;5093019;28;20444;-67
2023/06/30 02:15:37;;;;;;;10.87;6.40;;;;;;;;;;5092917;28;20450;-66
2023/06/30 02:18:06;;;;;;;6.43;5.80;;;;;;;;;;5092944;28;20446;-67
2023/06/30 02:20:34;;;;;;;7.10;5.70;;;;;;;;;;5092672;28;20472;-66
2023/06/30 02:23:01;;;;;;;9.80;6.20;;;;;;;;;;5093646;28;20445;-67
2023/06/30 02:25:28;;;;;;;6.50;5.90;;;;;;;;;;5092768;28;20473;-67
2023/06/30 02:27:55;;;;;;;8.10;6.10;;;;;;;;;;5093137;28;20440;-65
2023/06/30 02:30:22;;;;;;;9.80;6.73;;;;;;;;;;5096185;28;20444;-65
2023/06/30 02:32:50;;;;;;;8.40;6.70;;;;;;;;;;5096714;28;20486;-65
2023/06/30 02:35:18;;;;;;;10.00;7.30;;;;;;;;;;5096649;28;20439;-65
2023/06/30 02:37:45;;;;;;;7.00;6.30;;;;;;;;;;5096726;28;20928;-65
2023/06/30 02:40:13;;;;;;;9.97;7.03;;;;;;;;;;5096275;28;20438;-66
2023/06/30 02:42:40;;;;;;;8.93;6.50;;;;;;;;;;5096315;28;20959;-66
2023/06/30 02:45:08;;;;;;;12.20;7.27;;;;;;;;;;5095737;28;20485;-66
2023/06/30 02:47:35;;;;;;;8.40;6.83;;;;;;;;;;5096599;28;20880;-66
2023/06/30 02:50:02;;;;;;;9.60;7.37;;;;;;;;;;5095607;28;20940;-66
2023/06/30 02:52:31;;;;;;;10.60;8.13;;;;;;;;;;5096175;28;20546;-66
2023/06/30 02:54:58;;;;;;;14.87;8.07;;;;;;;;;;5095935;28;20525;-66
2023/06/30 02:57:25;;;;;;;15.13;7.93;;;;;;;;;;5096053;28;20432;-65
2023/06/30 02:59:52;;;;;;;14.73;8.93;;;;;;;;;;5095848;28;20451;-66
2023/06/30 03:02:19;;;;;;;20.20;8.83;;;;;;;;;;5096136;28;20453;-65
2023/06/30 03:04:47;;;;;;;10.77;8.57;;;;;;;;;;5095805;28;20471;-65
2023/06/30 03:07:14;;;;;;;10.87;8.50;;;;;;;;;;5095456;28;20450;-65
2023/06/30 03:09:42;;;;;;;8.63;7.83;;;;;;;;;;5095325;28;20453;-66
2023/06/30 03:12:10;;;;;;;12.40;8.77;;;;;;;;;;5095866;28;20434;-65
2023/06/30 03:14:37;;;;;;;12.63;8.83;;;;;;;;;;5095634;28;20449;-65
2023/06/30 03:17:04;;;;;;;12.00;8.33;;;;;;;;;;5095507;28;20443;-65
2023/06/30 03:19:32;;;;;;;12.93;10.07;;;;;;;;;;5095409;28;20504;-66
2023/06/30 03:21:59;;;;;;;13.63;8.30;;;;;;;;;;5095696;28;20830;-66
2023/06/30 03:24:26;;;;;;;14.77;9.57;;;;;;;;;;5095637;28;20454;-65
2023/06/30 03:26:54;;;;;;;12.37;9.53;;;;;;;;;;5095353;28;20785;-65
2023/06/30 03:29:22;;;;;;;18.33;9.90;;;;;;;;;;5095361;28;20433;-65
2023/06/30 03:31:49;;;;;;;11.30;10.10;;;;;;;;;;5095223;28;20442;-65
2023/06/30 03:34:16;;;;;;;12.30;9.40;;;;;;;;;;5095277;28;20447;-65
2023/06/30 03:36:43;;;;;;;11.13;9.20;;;;;;;;;;5095129;28;20500;-66
2023/06/30 03:39:10;;;;;;;15.43;9.10;;;;;;;;;;5095308;28;20447;-66
2023/06/30 03:41:38;;;;;;;9.37;8.30;;;;;;;;;;5095217;28;20813;-67
2023/06/30 03:44:06;;;;;;;9.13;7.87;;;;;;;;;;5095580;28;20511;-67
2023/06/30 03:46:34;;;;;;;10.17;8.43;;;;;;;;;;5094931;28;20486;-65
2023/06/30 03:49:01;;;;;;;12.50;8.67;;;;;;;;;;5094956;28;20446;-65
2023/06/30 03:51:28;;;;;;;14.90;7.00;;;;;;;;;;5095029;28;20450;-65
2023/06/30 03:53:55;;;;;;;12.43;8.23;;;;;;;;;;5093163;28;20438;-65
2023/06/30 03:56:23;;;;;;;9.20;8.30;;;;;;;;;;5093469;28;20453;-65
2023/06/30 03:58:50;;;;;;;9.13;8.20;;;;;;;;;;5093624;28;20521;-66
2023/06/30 04:01:18;;;;;;;11.97;7.20;;;;;;;;;;5093307;28;20439;-65
2023/06/30 04:03:46;;;;;;;10.30;7.83;;;;;;;;;;5094147;28;20928;-65
2023/06/30 04:06:13;;;;;;;11.10;7.50;;;;;;;;;;5093926;28;20478;-65
2023/06/30 04:08:41;;;;;;;12.77;7.50;;;;;;;;;;5094537;28;20561;-65
2023/06/30 04:11:08;;;;;;;22.57;7.10;;;;;;;;;;5094122;28;20457;-65
2023/06/30 04:13:35;;;;;;;10.97;6.53;;;;;;;;;;5094430;28;20445;-63
2023/06/30 04:16:02;;;;;;;12.77;6.40;;;;;;;;;;5094354;28;20452;-68
2023/06/30 04:18:31;;;;;;;7.90;6.60;;;;;;;;;;5094454;28;20443;-67
2023/06/30 04:20:58;;;;;;;6.70;6.10;;;;;;;;;;5094026;28;20478;-67
2023/06/30 04:23:25;;;;;;;17.03;7.03;;;;;;;;;;5093663;28;20457;-67
2023/06/30 04:25:53;;;;;;;11.70;7.50;;;;;;;;;;5093458;28;20985;-67
2023/06/30 04:28:20;;;;;;;12.33;6.67;;;;;;;;;;5094095;28;20438;-67
2023/06/30 04:30:47;;;;;;;12.13;5.97;;;;;;;;;;5093375;28;20482;-67
2023/06/30 04:33:15;;;;;;;7.53;5.47;;;;;;;;;;5093864;28;20442;-67
2023/06/30 04:35:44;;;;;;;12.73;6.13;;;;;;;;;;5094496;28;20442;-67
2023/06/30 04:38:11;;;;;;;10.13;5.27;;;;;;;;;;5093627;28;20527;-67
2023/06/30 04:40:42;;;;;;;9.37;5.80;;;;;;;;;;5094055;28;20469;-66
2023/06/30 04:43:12;;;;;;;11.70;5.97;;;;;;;;;;5093649;28;20472;-66
2023/06/30 04:45:39;;;;;;;9.20;5.33;;;;;;;;;;5093762;28;20477;-66
2023/06/30 04:48:07;;;;;;;11.40;6.97;;;;;;;;;;5093579;28;20440;-66
2023/06/30 04:50:34;;;;;;;9.90;7.00;;;;;;;;;;5092641;28;20506;-68
2023/06/30 04:53:03;;;;;;;15.40;6.20;;;;;;;;;;5093677;28;20442;-66
2023/06/30 04:55:30;;;;;;;8.40;5.40;;;;;;;;;;5093581;28;20763;-66
2023/06/30 04:57:58;;;;;;;11.43;5.87;;;;;;;;;;5093747;28;20442;-66
2023/06/30 05:00:26;;;;;;;11.23;5.80;;;;;;;;;;5093633;28;20444;-66
2023/06/30 05:02:54;;;;;;;11.73;6.00;;;;;;;;;;5093289;28;20438;-69
2023/06/30 05:05:21;;;;;;;17.90;5.20;;;;;;;;;;5093283;28;20473;-66
2023/06/30 05:07:48;;;;;;;9.83;5.90;;;;;;;;;;5093087;28;20448;-68
2023/06/30 05:10:17;;;;;;;10.00;7.03;;;;;;;;;;5092788;28;20448;-67
2023/06/30 05:12:44;;;;;;;7.87;4.73;;;;;;;;;;5092911;28;20477;-67
2023/06/30 05:15:11;;;;;;;12.23;5.80;;;;;;;;;;5093437;28;20473;-67
2023/06/30 05:17:38;;;;;;;8.20;5.80;;;;;;;;;;5093505;28;20455;-66
2023/06/30 05:20:08;;;;;;;8.93;5.53;;;;;;;;;;5093165;28;20470;-67
2023/06/30 05:22:35;;;;;;;14.00;5.80;;;;;;;;;;5093096;28;20445;-66
2023/06/30 05:25:02;;;;;;;6.50;5.70;;;;;;;;;;5092780;28;20447;-67
2023/06/30 05:27:31;;;;;;;11.53;6.63;;;;;;;;;;5092648;28;20473;-67
2023/06/30 05:29:58;;;;;;;15.17;6.47;;;;;;;;;;5092576;28;20441;-67
2023/06/30 05:32:25;;;;;;;6.63;5.93;;;;;;;;;;5092484;28;20446;-66
2023/06/30 05:34:52;;;;;;;7.47;5.40;;;;;;;;;;5092806;28;20461;-66
2023/06/30 05:37:20;;;;;;;7.73;5.20;;;;;;;;;;5093016;28;20815;-66
2023/06/30 05:39:47;;;;;;;14.10;5.83;;;;;;;;;;5093193;28;20442;-66
2023/06/30 05:42:14;;;;;;;9.63;5.57;;;;;;;;;;5093118;28;20442;-66
2023/06/30 05:44:43;;;;;;;12.37;6.03;;;;;;;;;;5093039;28;20449;-67
2023/06/30 05:47:10;;;;;;;6.33;4.40;;;;;;;;;;5092603;28;20878;-67
2023/06/30 05:49:37;;;;;;;10.40;4.90;;;;;;;;;;5092651;28;20448;-67
2023/06/30 05:52:07;;;;;;;9.43;4.43;;;;;;;;;;5092595;28;20951;-66
2023/06/30 05:54:34;;;;;;;6.93;4.40;;;;;;;;;;5092821;28;20833;-66
2023/06/30 05:57:01;;;;;;;7.97;4.37;;;;;;;;;;5092886;28;20441;-67
2023/06/30 05:59:30;;;;;;;12.40;4.60;;;;;;;;;;5092903;28;20447;-66
2023/06/30 06:01:58;;;;;;;6.33;4.47;;;;;;;;;;5092975;28;20450;-66
2023/06/30 06:04:26;;;;;;;6.60;3.63;;;;;;;;;;5095734;28;20448;-66
2023/06/30 06:06:53;;;;;;;5.40;3.57;;;;;;;;;;5096387;28;21009;-67
2023/06/30 06:09:20;;;;;;;10.40;3.37;;;;;;;;;;5096770;28;20439;-66
2023/06/30 06:11:47;;;;;;;11.67;4.10;;;;;;;;;;5096700;28;20444;-66
2023/06/30 06:14:15;;;;;;;9.67;4.17;;;;;;;;;;5096675;28;20506;-66
2023/06/30 06:16:45;;;;;;;9.20;3.80;;;;;;;;;;5096643;28;20458;-66
2023/06/30 06:19:14;;;;;;;7.43;3.60;;;;;;;;;;5096815;28;20810;-66
2023/06/30 06:21:42;;;;;;;10.60;3.67;;;;;;;;;;5096207;28;20977;-66
2023/06/30 06:24:09;;;;;;;6.60;4.00;;;;;;;;;;5096375;28;20504;-66
2023/06/30 06:26:37;;;;;;;7.50;3.07;;;;;;;;;;5096422;28;20582;-66
2023/06/30 06:29:04;;;;;;;9.03;2.90;;;;;;;;;;5096255;28;20446;-66
2023/06/30 06:31:31;;;;;;;11.63;2.77;;;;;;;;;;5096549;28;20524;-66
2023/06/30 06:33:58;;;;;;;7.90;3.20;;;;;;;;;;5096214;28;20442;-65
2023/06/30 06:36:27;;;;;;;12.30;4.07;;;;;;;;;;5096131;28;20466;-65
2023/06/30 06:38:54;;;;;;;6.33;3.70;;;;;;;;;;5095830;28;20447;-66
2023/06/30 06:41:21;;;;;;;7.50;3.10;;;;;;;;;;5095791;28;20880;-67
2023/06/30 06:43:48;;;;;;;8.50;2.80;;;;;;;;;;5095738;28;20444;-66
2023/06/30 06:46:15;;;;;;;6.77;2.60;;;;;;;;;;5096160;28;20486;-66
2023/06/30 06:48:43;;;;;;;4.90;2.70;;;;;;;;;;5095851;28;20455;-66
2023/06/30 06:51:10;;;;;;;7.50;3.40;;;;;;;;;;5095646;28;20545;-66
2023/06/30 06:53:39;;;;;;;2.47;2.27;;;;;;;;;;5095537;28;20448;-66
2023/06/30 06:56:06;;;;;;;7.90;2.90;;;;;;;;;;5096024;28;20480;-66
2023/06/30 06:58:35;;;;;;;7.57;3.90;;;;;;;;;;5095807;28;20448;-66
2023/06/30 07:01:02;;;;;;;6.70;2.90;;;;;;;;;;5095787;28;20615;-66
2023/06/30 07:03:30;;;;;;;8.20;2.67;;;;;;;;;;5096020;28;20460;-65
2023/06/30 07:05:57;;;;;;;8.33;3.10;;;;;;;;;;5095988;28;20485;-66
2023/06/30 07:08:26;;;;;;;6.87;2.57;;;;;;;;;;5095599;28;20451;-66
2023/06/30 07:10:55;;;;;;;3.83;2.20;;;;;;;;;;5096250;28;20548;-66
2023/06/30 07:13:23;;;;;;;4.47;2.50;;;;;;;;;;5095332;28;20496;-67
2023/06/30 07:15:50;;;;;;;6.37;2.57;;;;;;;;;;5095105;28;20447;-66
2023/06/30 07:18:17;;;;;;;8.17;2.20;;;;;;;;;;5095348;28;20949;-67
2023/06/30 07:20:45;;;;;;;7.90;2.40;;;;;;;;;;5095034;28;20557;-66
2023/06/30 07:23:12;;;;;;;4.50;2.30;;;;;;;;;;5095063;28;20452;-66
2023/06/30 07:25:39;;;;;;;5.93;2.47;;;;;;;;;;5095357;28;20523;-66
2023/06/30 07:28:08;;;;;;;4.60;2.50;;;;;;;;;;5095789;28;20440;-66
2023/06/30 07:30:36;;;;;;;13.00;2.40;;;;;;;;;;5094947;28;20945;-66
2023/06/30 07:33:03;;;;;;;8.40;2.57;;;;;;;;;;5095262;28;20478;-66
2023/06/30 07:35:30;;;;;;;4.23;3.50;;;;;;;;;;5094985;28;20438;-66
2023/06/30 07:37:57;;;;;;;3.47;1.80;;;;;;;;;;5094768;28;20531;-66
2023/06/30 07:40:25;;;;;;;5.00;1.87;;;;;;;;;;5094872;28;20448;-65
2023/06/30 07:42:53;;;;;;;5.80;2.10;;;;;;;;;;5095001;28;20437;-66
2023/06/30 07:45:21;;;;;;;2.53;2.17;;;;;;;;;;5094907;28;20796;-66
2023/06/30 07:47:49;;;;;;;3.03;2.17;;;;;;;;;;5094458;28;20998;-67
2023/06/30 07:50:16;;;;;;;3.90;1.93;;;;;;;;;;5094788;28;20800;-66
2023/06/30 07:52:44;;;;;;;11.13;2.80;;;;;;;;;;5094717;28;20460;-67
2023/06/30 07:55:12;;;;;;;6.30;2.33;;;;;;;;;;5094879;28;20441;-66
2023/06/30 07:57:40;;;;;;;5.17;2.53;;;;;;;;;;5094312;28;20931;-65
2023/06/30 08:00:07;;;;;;;5.90;3.37;;;;;;;;;;5094509;28;20443;-66
2023/06/30 08:02:36;;;;;;;4.10;2.20;;;;;;;;;;5094212;28;20526;-66
2023/06/30 08:05:04;;;;;;;5.33;2.77;;;;;;;;;;5094032;28;20445;-66
2023/06/30 08:07:31;;;;;;;5.07;2.00;;;;;;;;;;5094519;28;20593;-66
2023/06/30 08:09:59;;;;;;;5.00;2.37;;;;;;;;;;5094527;28;20436;-66
2023/06/30 08:12:26;;;;;;;4.20;2.10;;;;;;;;;;5094498;28;20447;-66
2023/06/30 08:14:53;;;;;;;6.23;2.30;;;;;;;;;;5094083;28;20536;-66
2023/06/30 08:17:21;;;;;;;6.70;3.50;;;;;;;;;;5094167;28;20462;-66
2023/06/30 08:19:49;;;;;;;4.03;2.10;;;;;;;;;;5094504;28;20548;-67
2023/06/30 08:22:18;;;;;;;7.80;2.27;;;;;;;;;;5094746;28;20434;-67
2023/06/30 08:24:45;;;;;;;9.80;2.60;;;;;;;;;;5094083;28;20450;-67
2023/06/30 08:27:13;;;;;;;4.80;2.60;;;;;;;;;;5093432;28;20479;-66
2023/06/30 08:29:40;;;;;;;5.70;2.07;;;;;;;;;;5094478;28;20438;-67
2023/06/30 08:32:08;;;;;;;5.73;2.43;;;;;;;;;;5093945;28;20450;-66
2023/06/30 08:34:35;;;;;;;2.50;2.30;;;;;;;;;;5093191;28;20941;-66
2023/06/30 08:37:04;;;;;;;2.57;2.30;;;;;;;;;;5094001;28;20449;-66
2023/06/30 08:39:32;;;;;;;9.37;2.57;;;;;;;;;;5094023;28;20437;-66
2023/06/30 08:42:00;;;;;;;3.53;2.10;;;;;;;;;;5094182;28;20442;-66
2023/06/30 08:44:28;;;;;;;5.30;2.70;;;;;;;;;;5094105;28;20448;-66
2023/06/30 08:46:55;;;;;;;3.37;2.07;;;;;;;;;;5093538;28;20483;-66
2023/06/30 08:49:23;;;;;;;3.63;2.17;;;;;;;;;;5094227;28;20453;-67
2023/06/30 08:51:52;;;;;;;6.87;2.17;;;;;;;;;;5093417;28;20454;-66
2023/06/30 08:54:21;;;;;;;3.80;1.90;;;;;;;;;;5093432;28;20449;-65
2023/06/30 08:56:48;;;;;;;4.63;2.60;;;;;;;;;;5093589;28;20588;-66
2023/06/30 08:59:16;;;;;;;12.57;2.53;;;;;;;;;;5093760;28;20443;-66
2023/06/30 09:01:44;;;;;;;6.30;2.53;;;;;;;;;;5093529;28;20448;-66
2023/06/30 09:04:11;;;;;;;4.80;2.30;;;;;;;;;;5093867;28;20779;-65
2023/06/30 09:06:39;;;;;;;2.80;1.83;;;;;;;;;;5092986;28;20478;-66
2023/06/30 09:09:09;;;;;;;3.43;2.47;;;;;;;;;;5093638;28;20450;-66
2023/06/30 09:11:39;;;;;;;3.83;2.43;;;;;;;;;;5093558;28;20431;-66
2023/06/30 09:14:08;;;;;;;6.27;2.33;;;;;;;;;;5093469;28;20448;-66
2023/06/30 09:16:35;;;;;;;4.70;2.23;;;;;;;;;;5093358;28;20445;-67
2023/06/30 09:19:02;;;;;;;4.13;2.00;;;;;;;;;;5093151;28;20453;-67
2023/06/30 09:21:29;;;;;;;9.87;1.90;;;;;;;;;;5093513;28;20989;-66
2023/06/30 09:23:57;;;;;;;4.27;1.73;;;;;;;;;;5093815;28;20444;-66
2023/06/30 09:26:24;;;;;;;2.33;2.10;;;;;;;;;;5093397;28;20448;-66
2023/06/30 09:28:55;;;;;;;3.93;2.33;;;;;;;;;;5093319;28;20448;-66
2023/06/30 09:31:29;;;;;;;7.20;1.97;;;;;;;;;;5093025;28;20443;-66
2023/06/30 09:34:07;;;;;;;4.13;2.23;;;;;;;;;;5093395;28;20476;-66
2023/06/30 09:36:37;;;;;;;4.17;2.00;;;;;;;;;;5093247;28;20423;-67
2023/06/30 09:39:07;;;;;;;5.90;2.00;;;;;;;;;;5097707;28;20446;-66
2023/06/30 09:41:34;;;;;;;2.70;2.00;;;;;;;;;;5097497;28;20446;-66
2023/06/30 09:44:04;;;;;;;4.80;2.43;;;;;;;;;;5097479;28;20439;-66
2023/06/30 09:46:31;;;;;;;4.50;2.60;;;;;;;;;;5096813;28;20472;-67
2023/06/30 09:49:00;;;;;;;5.17;2.47;;;;;;;;;;5097895;28;20530;-66
2023/06/30 09:51:27;;;;;;;3.10;2.00;;;;;;;;;;5097209;28;20454;-66
2023/06/30 09:53:54;;;;;;;4.00;1.90;;;;;;;;;;5097139;28;20448;-66
2023/06/30 09:56:22;;;;;;;2.80;2.00;;;;;;;;;;5097063;28;20450;-66
2023/06/30 09:58:49;;;;;;;5.40;2.60;;;;;;;;;;5097128;28;20455;-66
2023/06/30 10:01:22;;;;;;;3.43;1.80;;;;;;;;;;5097275;28;20448;-65
2023/06/30 10:03:50;;;;;;;8.13;2.43;;;;;;;;;;5097610;28;20570;-66
2023/06/30 10:06:18;;;;;;;5.07;2.50;;;;;;;;;;5096906;28;20462;-66
2023/06/30 10:08:46;;;;;;;2.63;2.00;;;;;;;;;;5096501;28;20496;-66
2023/06/30 10:11:13;;;;;;;5.13;2.33;;;;;;;;;;5096790;28;20450;-65
2023/06/30 10:13:42;;;;;;;3.67;2.23;;;;;;;;;;5096535;28;20460;-65
2023/06/30 10:16:09;;;;;;;6.00;2.30;;;;;;;;;;5096450;28;20932;-65
2023/06/30 10:18:42;;;;;;;4.83;2.30;;;;;;;;;;5096747;28;20456;-66
2023/06/30 10:21:09;;;;;;;2.37;2.10;;;;;;;;;;5096781;28;20505;-66
2023/06/30 10:23:37;;;;;;;5.57;2.60;;;;;;;;;;5096583;28;20449;-66
2023/06/30 10:26:06;;;;;;;5.73;2.63;;;;;;;;;;5096064;28;20441;-66
2023/06/30 10:28:34;;;;;;;2.50;1.80;;;;;;;;;;5096441;28;20475;-66
2023/06/30 10:31:01;;;;;;;6.20;2.40;;;;;;;;;;5096382;28;20449;-66
2023/06/30 10:33:28;;;;;;;2.53;2.07;;;;;;;;;;5096048;28;20446;-66
2023/06/30 10:35:59;;;;;;;4.20;2.23;;;;;;;;;;5096267;28;20450;-66
2023/06/30 10:38:26;;;;;;;5.53;2.17;;;;;;;;;;5096695;28;20858;-66
2023/06/30 10:41:13;;;;;;;5.67;2.23;;;;;;;;;;5096164;28;20542;-66
2023/06/30 10:44:04;;;;;;;3.83;2.00;;;;;;;;;;5095993;28;20429;-67
2023/06/30 10:46:41;;;;;;;3.23;1.90;;;;;;;;;;5096269;28;20516;-65
2023/06/30 10:49:08;;;;;;;3.87;2.00;;;;;;;;;;5095426;28;20443;-67
2023/06/30 10:51:38;;;;;;;4.10;2.43;;;;;;;;;;5096179;28;20458;-66
2023/06/30 10:54:05;;;;;;;2.50;1.67;;;;;;;;;;5096060;28;20440;-66
2023/06/30 10:56:35;;;;;;;2.33;1.83;;;;;;;;;;5095444;28;20932;-66
2023/06/30 10:59:04;;;;;;;4.43;1.70;;;;;;;;;;5096131;28;20439;-66
2023/06/30 11:01:31;;;;;;;3.23;2.13;;;;;;;;;;5096195;28;20447;-66
2023/06/30 11:04:13;;;;;;;3.20;1.77;;;;;;;;;;5096044;28;20473;-66
2023/06/30 11:06:47;;;;;;;4.93;1.90;;;;;;;;;;5095275;28;20432;-66
2023/06/30 11:09:14;;;;;;;5.10;1.90;;;;;;;;;;5095528;28;20436;-66
2023/06/30 11:11:48;;;;;;;4.07;1.70;;;;;;;;;;5095547;28;20440;-66
2023/06/30 11:14:15;;;;;;;4.90;1.83;;;;;;;;;;5095690;28;20522;-66
2023/06/30 11:17:01;;;;;;;2.00;1.53;;;;;;;;;;5095432;28;20432;-66
2023/06/30 11:19:28;;;;;;;5.57;2.10;;;;;;;;;;5095467;28;20500;-67
2023/06/30 11:22:10;;;;;;;2.17;1.50;;;;;;;;;;5095181;28;20479;-66
2023/06/30 11:24:39;;;;;;;3.67;2.30;;;;;;;;;;5094923;28;20450;-66
2023/06/30 11:27:07;;;;;;;2.70;1.50;;;;;;;;;;5094799;28;21068;-66
2023/06/30 11:29:34;;;;;;;6.77;2.00;;;;;;;;;;5094729;28;20439;-65
2023/06/30 11:32:01;;;;;;;2.13;1.90;;;;;;;;;;5094646;28;20440;-64
2023/06/30 11:34:28;;;;;;;1.90;1.80;;;;;;;;;;5094619;28;20435;-64
2023/06/30 11:36:56;;;;;;;2.30;1.60;;;;;;;;;;5095311;28;20442;-64
2023/06/30 11:39:23;;;;;;;3.57;2.10;;;;;;;;;;5095101;28;20439;-64
2023/06/30 11:41:51;;;;;;;3.40;1.60;;;;;;;;;;5094973;28;20447;-65
2023/06/30 11:44:19;;;;;;;2.13;1.60;;;;;;;;;;5094634;28;20938;-68
2023/06/30 11:46:46;;;;;;;2.37;1.80;;;;;;;;;;5094734;28;20452;-70
2023/06/30 11:49:14;;;;;;;3.20;1.93;;;;;;;;;;5094636;28;20544;-70
2023/06/30 11:51:41;;;;;;;1.60;1.50;;;;;;;;;;5095107;28;20447;-68
2023/06/30 11:54:08;;;;;;;2.43;1.80;;;;;;;;;;5080451;28;20871;-69
2023/06/30 11:56:40;;;;;;;2.73;2.03;;;;;;;;;;5093421;28;20823;-70
2023/06/30 11:59:08;;;;;;;5.03;1.80;;;;;;;;;;5093303;28;20877;-69
2023/06/30 12:01:35;;;;;;;3.37;1.70;;;;;;;;;;5092431;28;20451;-70
2023/06/30 12:04:17;;;;;;;2.63;1.90;;;;;;;;;;5093808;28;20454;-70
2023/06/30 12:06:45;;;;;;;3.80;2.50;;;;;;;;;;5093676;28;20810;-70
2023/06/30 12:09:12;;;;;;;5.73;1.90;;;;;;;;;;5093878;28;20525;-69
2023/06/30 12:11:42;;;;;;;2.80;1.67;;;;;;;;;;5094025;28;20445;-69
2023/06/30 12:14:13;;;;;;;3.70;1.63;;;;;;;;;;5093920;28;20959;-69
2023/06/30 12:16:40;;;;;;;2.07;1.80;;;;;;;;;;5094122;28;20435;-70
2023/06/30 12:19:08;;;;;;;3.30;2.37;;;;;;;;;;5093818;28;20447;-69
2023/06/30 12:21:37;;;;;;;2.70;1.90;;;;;;;;;;5093503;28;20489;-69
2023/06/30 12:24:05;;;;;;;4.33;2.20;;;;;;;;;;5093699;28;20698;-70
2023/06/30 12:26:32;;;;;;;2.43;2.20;;;;;;;;;;5093049;28;20435;-70
2023/06/30 12:29:04;;;;;;;3.77;1.87;;;;;;;;;;5093623;28;20479;-70
2023/06/30 12:31:34;;;;;;;3.67;2.10;;;;;;;;;;5093243;28;20430;-69
2023/06/30 12:34:02;;;;;;;4.03;2.00;;;;;;;;;;5093660;28;20432;-69
2023/06/30 12:36:29;;;;;;;3.60;2.00;;;;;;;;;;5093684;28;20451;-69
2023/06/30 12:38:56;;;;;;;2.00;1.87;;;;;;;;;;5093387;28;20435;-69
2023/06/30 12:41:24;;;;;;;5.33;1.50;;;;;;;;;;5093707;28;20440;-70
2023/06/30 12:43:53;;;;;;;3.97;1.97;;;;;;;;;;5093568;28;20443;-71
2023/06/30 12:46:20;;;;;;;1.93;1.73;;;;;;;;;;5093764;28;20447;-70
2023/06/30 12:48:49;;;;;;;3.57;2.17;;;;;;;;;;5093411;28;20562;-69
2023/06/30 12:51:16;;;;;;;2.83;1.60;;;;;;;;;;5092745;28;20470;-69
2023/06/30 12:53:43;;;;;;;2.43;1.83;;;;;;;;;;5093543;28;20438;-70
2023/06/30 12:56:10;;;;;;;2.83;2.10;;;;;;;;;;5093329;28;20462;-68
2023/06/30 12:58:38;;;;;;;2.00;1.80;;;;;;;;;;5093333;28;20444;-69
2023/06/30 13:01:05;;;;;;;2.10;1.80;;;;;;;;;;5093470;28;20442;-71
2023/06/30 13:03:34;;;;;;;2.30;2.00;;;;;;;;;;5093290;28;20514;-69
2023/06/30 13:06:03;;;;;;;3.87;2.00;;;;;;;;;;5093021;28;20436;-69
2023/06/30 13:08:30;;;;;;;2.17;1.97;;;;;;;;;;5092722;28;20472;-69
2023/06/30 13:10:57;;;;;;;5.90;1.97;;;;;;;;;;5093044;28;20442;-70
2023/06/30 13:13:24;;;;;;;4.00;1.93;;;;;;;;;;5092882;28;20450;-69
2023/06/30 13:15:52;;;;;;;1.70;1.60;;;;;;;;;;5093513;28;20445;-69
2023/06/30 13:18:20;;;;;;;2.23;1.67;;;;;;;;;;5093152;28;20436;-70
2023/06/30 13:20:47;;;;;;;3.77;2.00;;;;;;;;;;5093060;28;20560;-69
2023/06/30 13:23:16;;;;;;;3.57;2.20;;;;;;;;;;5092803;28;20474;-70
2023/06/30 13:25:44;;;;;;;2.80;1.80;;;;;;;;;;5092651;28;20448;-69
2023/06/30 13:28:11;;;;;;;5.03;2.40;;;;;;;;;;5092553;28;20478;-70
2023/06/30 13:30:38;;;;;;;4.13;2.07;;;;;;;;;;5092809;28;20462;-70
2023/06/30 13:33:06;;;;;;;4.80;2.20;;;;;;;;;;5092956;28;20444;-69
2023/06/30 13:35:33;;;;;;;3.33;2.00;;;;;;;;;;5092764;28;20496;-69
2023/06/30 13:38:00;;;;;;;2.83;2.00;;;;;;;;;;5092686;28;20460;-69
2023/06/30 13:40:29;;;;;;;2.07;1.87;;;;;;;;;;5092963;28;20443;-70
2023/06/30 13:42:56;;;;;;;1.90;1.70;;;;;;;;;;5092834;28;20450;-69
2023/06/30 13:45:23;;;;;;;5.90;2.30;;;;;;;;;;5092983;28;20442;-69
2023/06/30 13:47:50;;;;;;;2.43;2.10;;;;;;;;;;5092652;28;20534;-70
2023/06/30 13:50:17;;;;;;;3.23;1.67;;;;;;;;;;5092946;28;20451;-69
2023/06/30 13:52:45;;;;;;;2.10;1.83;;;;;;;;;;5092637;28;20448;-69
2023/06/30 13:55:12;;;;;;;3.10;2.20;;;;;;;;;;5092532;28;20442;-69
2023/06/30 13:57:40;;;;;;;5.03;2.00;;;;;;;;;;5092848;28;20454;-69
2023/06/30 14:00:08;;;;;;;2.53;1.90;;;;;;;;;;5092736;28;20439;-69
2023/06/30 14:02:35;;;;;;;5.03;2.40;;;;;;;;;;5092879;28;20809;-69
2023/06/30 14:05:02;;;;;;;5.07;2.20;;;;;;;;;;5092770;28;20444;-69
2023/06/30 14:07:30;;;;;;;2.70;2.30;;;;;;;;;;5092486;28;21009;-69
2023/06/30 14:09:58;;;;;;;2.00;1.80;;;;;;;;;;5092340;28;20485;-69
2023/06/30 14:12:25;;;;;;;2.80;2.00;;;;;;;;;;5092629;28;20956;-69
2023/06/30 14:14:54;;;;;;;2.00;1.80;;;;;;;;;;5092629;28;20448;-69
2023/06/30 14:17:21;;;;;;;6.07;2.23;;;;;;;;;;5092415;28;20446;-69
2023/06/30 14:19:50;;;;;;;3.50;2.40;;;;;;;;;;5092776;28;20912;-69
2023/06/30 14:22:18;;;;;;;3.33;1.83;;;;;;;;;;5092434;28;20418;-69
2023/06/30 14:24:45;;;;;;;3.33;1.97;;;;;;;;;;5094501;28;20446;-69
2023/06/30 14:27:12;;;;;;;4.53;2.10;;;;;;;;;;5096093;28;20447;-70
2023/06/30 14:29:42;;;;;;;2.10;1.70;;;;;;;;;;5095908;28;21044;-70
2023/06/30 14:32:11;;;;;;;2.70;1.90;;;;;;;;;;5087041;28;20446;-69
2023/06/30 14:34:38;;;;;;;3.60;2.67;;;;;;;;;;5076091;28;20757;-69
2023/06/30 14:37:05;;;;;;;3.07;2.13;;;;;;;;;;5081120;28;20470;-70
2023/06/30 14:39:32;;;;;;;2.80;1.80;;;;;;;;;;5096168;28;20449;-70
2023/06/30 14:41:59;;;;;;;2.50;1.90;;;;;;;;;;5096133;28;20463;-69
2023/06/30 14:44:27;;;;;;;7.43;2.03;;;;;;;;;;5095824;28;20448;-70
2023/06/30 14:46:54;;;;;;;4.60;2.10;;;;;;;;;;5095590;28;20443;-69